Nearby METAR Reports

 

KSJC - San Jose, California, USA
Distance from station: NE 14km
Updated: 22/04/2021 19:23
Few Clouds
Few Clouds
 Wind from NNW
Wind: NNW 30 km/h
Temperature: 12°C
Dew Point: 7°C
Humidity: 72%
Barometer: 1014.2 hPa
Clouds: Few Clouds
Visibility: 16 km
Cloud details: Few Clouds 274 m
Few Clouds 640 m
2021/04/23 02:23 KSJC 230223Z 34016KT 10SM FEW009 FEW021 12/07 A2995 RMK AO2 T01170072
KNUQ - Moffett Nas/Mtn, California, USA
Distance from station: N 14km
Updated: 13/04/2021 15:40
NOT Current

 
2021/04/13 22:40 KNUQ 132240Z AUTO RMK AO2 PNO PWINO TSNO
 
KPAO - Palo Alto, California, USA
Distance from station: NNW 23km
Updated: 22/04/2021 19:47
Few Clouds
Few Clouds
 Wind from NW
Wind: NW 24 km/h
Temperature: 11°C
Dew Point: 7°C
Humidity: 77%
Barometer: 1014.6 hPa
Clouds: Few Clouds
Visibility: 16 km
Cloud details: Few Clouds 762 m
2021/04/23 02:47 KPAO 230247Z 31013KT 10SM FEW025 11/07 A2996
KRHV - San Jose/Reid, California, USA
Distance from station: ENE 19km
Updated: 22/04/2021 18:47
Clear
Clear
 Wind from NNW
Wind: NNW 22 km/h
Temperature: 14°C
Dew Point: 8°C
Humidity: 67%
Barometer: 1013.9 hPa
Clouds: Clear
Visibility: 16 km
2021/04/23 01:47 KRHV 230147Z 33012KT 10SM SKC 14/08 A2994
 
KOAK - Oakland, California, USA
Distance from station: NNW 50km
Updated: 22/04/2021 18:53
Overcast
Overcast
 Wind from W
Wind: W 22 km/h
Temperature: 11°C
Dew Point: 7°C
Humidity: 77%
Barometer: 1014.9 hPa
Clouds: Overcast
Visibility: 13 km
Cloud details: Overcast 366 m
2021/04/23 01:53 KOAK 230153Z 26012KT 8SM OVC012 11/07 A2997 RMK AO2 SLP147 T01110072
KSQL - San Carlos Airpo, California, USA
Distance from station: NW 34km
Updated: 22/04/2021 17:47
NOT Current
Mostly cloudy
Mostly cloudy
 Wind from W
Wind: W 30 km/h, Gust: 41 km/h
Temperature: 14°C
Dew Point: 7°C
Humidity: 63%
Barometer: 1014.6 hPa
Clouds: Mostly cloudy
Visibility: 16 km
Cloud details: Mostly cloudy 366 m
2021/04/23 00:47 KSQL 230047Z 26016G22KT 10SM BKN012 14/07 A2996
 
KSFO - San Francisco, California, USA
Distance from station: NW 49km
Updated: 22/04/2021 18:56
Mostly cloudy
Mostly cloudy
 Wind from W
Wind: W 22 km/h, Gust: 33 km/h
Temperature: 12°C
Dew Point: 7°C
Humidity: 72%
Barometer: 1014.6 hPa
Clouds: Mostly cloudy
Visibility: 16 km
Cloud details: Few Clouds 152 m
Mostly cloudy 366 m
2021/04/23 01:56 KSFO 230156Z 26012G18KT 10SM FEW005 BKN012 12/07 A2996 RMK AO2 SLP145 T01170067
KE16 - San Martin, California, USA
Distance from station: ESE 43km
Updated: 22/04/2021 19:35
Clear
Clear
 Wind from S
Wind: S 17 km/h
Temperature: 11°C
Dew Point: 8°C
Humidity: 82%
Barometer: 1014.9 hPa
Clouds: Clear
Visibility: 16 km
2021/04/23 02:35 KE16 230235Z AUTO 17009KT 10SM CLR 11/08 A2997 RMK AO2
 
KWVI - Watsonville, California, USA
Distance from station: SSE 44km
Updated: 22/04/2021 05:53
NOT Current
Overcast
Overcast
 Wind from calm
Wind: Calm
Temperature: 9°C
Dew Point: 7°C
Humidity: 87%
Barometer: 1014.2 hPa
Clouds: Overcast
Visibility: 16 km
Cloud details: Overcast 366 m
2021/04/22 12:53 KWVI 221253Z AUTO 00000KT 10SM OVC012 09/07 A2995 RMK AO2 SLP143 T00940072
KHAF - Half Moon Bay, California, USA
Distance from station: WNW 50km
Updated: 22/04/2021 19:35
Mist, Overcast
Mist, Overcast
 Wind from WNW
Wind: WNW 11 km/h
Temperature: 9°C
Wind Chill: 7°C
Dew Point: 8°C
Humidity: 94%
Barometer: 1015.6 hPa
Summary: Mist
Clouds: Overcast
Visibility: 4 km
Cloud details: Overcast 366 m
2021/04/23 02:35 KHAF 230235Z AUTO 30006KT 2 1/2SM BR OVC012 09/08 A2999 RMK AO2
 
KHWD - Hayward, California, USA
Distance from station: N 44km
Updated: 22/04/2021 18:54
Overcast
Overcast
 Wind from W
Wind: W 19 km/h
Temperature: 11°C
Dew Point: 7°C
Humidity: 77%
Barometer: 1014.6 hPa
Clouds: Overcast
Visibility: 16 km
Cloud details: Overcast 396 m
2021/04/23 01:54 KHWD 230154Z 27010KT 10SM OVC013 11/07 A2996 RMK AO2 SLP155 T01110067
KLVK - Livermore, California, USA
Distance from station: NNE 51km
Updated: 22/04/2021 18:53
Clear
Clear
 Wind from W
Wind: W 35 km/h
Temperature: 11°C
Dew Point: 7°C
Humidity: 77%
Barometer: 1013.5 hPa
Clouds: Clear
Visibility: 16 km
2021/04/23 01:53 KLVK 230153Z 28019KT 10SM CLR 11/07 A2993 RMK AO2 SLP133 T01060067